createdAt,value
2023-01-17T00:02:02.738Z,4.84
2023-01-17T00:04:50.520Z,4.83
2023-01-17T00:07:37.989Z,4.85
2023-01-17T00:10:08.190Z,4.85
2023-01-17T00:12:37.781Z,4.86
2023-01-17T00:15:07.667Z,4.87
2023-01-17T00:17:37.228Z,4.90
2023-01-17T00:20:26.005Z,4.95
2023-01-17T00:23:12.973Z,4.98
2023-01-17T00:25:59.440Z,4.99
2023-01-17T00:28:27.788Z,5.01
2023-01-17T00:30:55.654Z,5.01
2023-01-17T00:33:24.062Z,5.07
2023-01-17T00:35:53.723Z,5.04
2023-01-17T00:38:22.751Z,5.07
2023-01-17T00:40:50.635Z,5.11
2023-01-17T00:43:37.770Z,5.13
2023-01-17T00:46:24.707Z,5.15
2023-01-17T00:49:11.585Z,5.16
2023-01-17T00:51:59.329Z,5.17
2023-01-17T00:54:46.348Z,5.16
2023-01-17T00:57:32.804Z,5.21
2023-01-17T01:00:19.835Z,5.21
2023-01-17T01:03:06.122Z,5.24
2023-01-17T01:05:53.234Z,5.22
2023-01-17T01:08:42.232Z,5.23
2023-01-17T01:11:30.209Z,5.27
2023-01-17T01:14:17.586Z,5.26
2023-01-17T01:17:04.647Z,5.28
2023-01-17T01:19:50.927Z,5.29
2023-01-17T01:22:37.985Z,5.31
2023-01-17T01:25:26.199Z,5.30
2023-01-17T01:28:21.089Z,5.32
2023-01-17T01:31:07.843Z,5.32
2023-01-17T01:33:37.457Z,5.33
2023-01-17T01:36:08.400Z,5.34
2023-01-17T01:38:38.004Z,5.34
2023-01-17T01:41:08.684Z,5.36
2023-01-17T01:43:42.233Z,5.36
2023-01-17T01:46:11.908Z,5.38
2023-01-17T01:48:41.992Z,5.40
2023-01-17T01:51:12.133Z,5.39
2023-01-17T01:53:42.526Z,5.41
2023-01-17T01:56:14.383Z,5.41
2023-01-17T01:58:45.236Z,5.41
2023-01-17T02:01:14.611Z,5.46
2023-01-17T02:03:44.250Z,5.48
2023-01-17T02:06:16.544Z,5.47
2023-01-17T02:08:46.056Z,5.50
2023-01-17T02:11:16.785Z,5.52
2023-01-17T02:13:46.295Z,5.54
2023-01-17T02:16:17.594Z,5.52
2023-01-17T02:18:48.820Z,5.52
2023-01-17T02:21:24.552Z,5.55
2023-01-17T02:24:07.989Z,5.56
2023-01-17T02:26:51.691Z,5.55
2023-01-17T02:29:45.220Z,5.54
2023-01-17T02:32:16.188Z,5.54
2023-01-17T02:34:47.201Z,5.55
2023-01-17T02:37:17.909Z,5.55
2023-01-17T02:39:49.197Z,5.55
2023-01-17T02:42:18.826Z,5.55
2023-01-17T02:44:48.435Z,5.56
2023-01-17T02:47:22.542Z,5.52
2023-01-17T02:49:52.714Z,5.54
2023-01-17T02:52:25.044Z,5.52
2023-01-17T02:55:02.473Z,5.52
2023-01-17T02:57:36.692Z,5.48
2023-01-17T03:00:07.796Z,5.51
2023-01-17T03:02:39.661Z,5.51
2023-01-17T03:05:11.028Z,5.49
2023-01-17T03:07:41.858Z,5.46
2023-01-17T03:10:11.903Z,5.41
2023-01-17T03:12:41.135Z,5.41
2023-01-17T03:15:12.123Z,5.43
2023-01-17T03:17:44.084Z,5.40
2023-01-17T03:20:13.809Z,5.42
2023-01-17T03:22:43.120Z,5.44
2023-01-17T03:25:12.717Z,5.39
2023-01-17T03:27:42.589Z,5.39
2023-01-17T03:30:12.743Z,5.42
2023-01-17T03:32:43.489Z,5.37
2023-01-17T03:35:13.108Z,5.38
2023-01-17T03:37:42.388Z,5.41
2023-01-17T03:40:12.466Z,5.42
2023-01-17T03:42:43.033Z,5.41
2023-01-17T03:45:13.043Z,5.39
2023-01-17T03:47:43.769Z,5.40
2023-01-17T03:50:13.499Z,5.41
2023-01-17T03:52:43.938Z,5.38
2023-01-17T03:55:13.455Z,5.37
2023-01-17T03:57:42.708Z,5.34
2023-01-17T04:00:12.992Z,5.38
2023-01-17T04:02:43.800Z,5.37
2023-01-17T04:05:13.530Z,5.38
2023-01-17T04:07:42.973Z,5.39
2023-01-17T04:10:12.680Z,5.32
2023-01-17T04:12:41.876Z,5.33
2023-01-17T04:15:11.757Z,5.35
2023-01-17T04:17:40.979Z,5.36
2023-01-17T04:20:13.621Z,5.37
2023-01-17T04:22:42.869Z,5.32
2023-01-17T04:25:12.583Z,5.36
2023-01-17T04:27:41.779Z,5.35
2023-01-17T04:30:12.205Z,5.34
2023-01-17T04:32:41.344Z,5.35
2023-01-17T04:35:11.116Z,5.33
2023-01-17T04:37:41.755Z,5.34
2023-01-17T04:40:12.390Z,5.35
2023-01-17T04:42:41.630Z,5.36
2023-01-17T04:45:11.652Z,5.33
2023-01-17T04:47:40.821Z,5.34
2023-01-17T04:50:11.274Z,5.35
2023-01-17T04:52:41.914Z,5.34
2023-01-17T04:55:11.554Z,5.36
2023-01-17T04:57:40.851Z,5.36
2023-01-17T05:00:11.828Z,5.37
2023-01-17T05:02:41.160Z,5.35
2023-01-17T05:05:11.136Z,5.37
2023-01-17T05:07:41.838Z,5.35
2023-01-17T05:10:11.991Z,5.34
2023-01-17T05:12:41.160Z,5.40
2023-01-17T05:15:11.077Z,5.42
2023-01-17T05:17:40.272Z,5.37
2023-01-17T05:20:10.774Z,5.38
2023-01-17T05:22:41.445Z,5.35
2023-01-17T05:25:11.136Z,5.39
2023-01-17T05:27:40.360Z,5.36
2023-01-17T05:30:10.729Z,5.36
2023-01-17T05:32:39.993Z,5.32
2023-01-17T05:35:10.090Z,5.35
2023-01-17T05:37:39.419Z,5.32
2023-01-17T05:40:11.454Z,5.34
2023-01-17T05:42:40.644Z,5.36
2023-01-17T05:45:12.592Z,5.35
2023-01-17T05:47:41.882Z,5.34
2023-01-17T05:50:12.301Z,5.30
2023-01-17T05:52:41.678Z,5.37
2023-01-17T05:55:12.828Z,5.40
2023-01-17T05:57:42.053Z,5.28
2023-01-17T06:00:12.142Z,5.32
2023-01-17T06:02:41.474Z,5.37
2023-01-17T06:05:11.158Z,5.41
2023-01-17T06:07:40.418Z,5.37
2023-01-17T06:10:10.928Z,5.34
2023-01-17T06:12:41.648Z,5.31
2023-01-17T06:15:11.636Z,5.39
2023-01-17T06:17:40.900Z,5.43
2023-01-17T06:20:11.243Z,5.44
2023-01-17T06:22:40.469Z,5.38
2023-01-17T06:25:10.318Z,5.32
2023-01-17T06:27:39.545Z,5.32
2023-01-17T06:30:11.423Z,5.42
2023-01-17T06:32:40.660Z,5.46
2023-01-17T06:35:10.537Z,5.44
2023-01-17T06:37:40.028Z,5.47
2023-01-17T06:40:10.447Z,5.44
2023-01-17T06:42:39.816Z,5.42
2023-01-17T06:45:11.637Z,5.43
2023-01-17T06:47:40.971Z,5.46
2023-01-17T06:50:12.427Z,5.47
2023-01-17T06:52:41.714Z,5.50
2023-01-17T06:55:11.588Z,5.50
2023-01-17T06:57:40.788Z,5.46
2023-01-17T07:00:12.798Z,5.50
2023-01-17T07:02:42.002Z,5.45
2023-01-17T07:05:11.630Z,5.43
2023-01-17T07:07:40.914Z,5.40
2023-01-17T07:10:11.107Z,5.40
2023-01-17T07:12:40.339Z,5.42
2023-01-17T07:15:12.488Z,5.42
2023-01-17T07:17:41.825Z,5.47
2023-01-17T07:20:11.947Z,5.41
2023-01-17T07:22:41.238Z,5.51
2023-01-17T07:25:11.067Z,5.45
2023-01-17T07:27:40.354Z,5.36
2023-01-17T07:30:12.569Z,5.40
2023-01-17T07:32:41.844Z,5.36
2023-01-17T07:35:11.520Z,5.44
2023-01-17T07:37:40.824Z,5.42
2023-01-17T07:40:11.271Z,5.47
2023-01-17T07:42:40.698Z,5.43
2023-01-17T07:45:12.800Z,5.51
2023-01-17T07:47:42.065Z,5.52
2023-01-17T07:50:13.111Z,5.54
2023-01-17T07:52:42.480Z,5.56
2023-01-17T07:55:12.002Z,5.57
2023-01-17T07:57:41.285Z,5.65
2023-01-17T08:00:13.018Z,5.65
2023-01-17T08:02:42.381Z,5.66
2023-01-17T08:05:12.088Z,5.69
2023-01-17T08:07:41.302Z,5.65
2023-01-17T08:10:13.112Z,5.67
2023-01-17T08:12:42.310Z,5.72
2023-01-17T08:15:14.044Z,5.75
2023-01-17T08:17:46.636Z,5.75
2023-01-17T08:20:16.444Z,5.78
2023-01-17T08:22:45.704Z,5.78
2023-01-17T08:25:15.346Z,5.82
2023-01-17T08:27:44.641Z,5.82
2023-01-17T08:30:15.984Z,5.81
2023-01-17T08:32:45.355Z,5.79
2023-01-17T08:35:15.539Z,5.83
2023-01-17T08:37:45.165Z,5.90
2023-01-17T08:40:17.223Z,5.91
2023-01-17T08:42:46.455Z,5.93
2023-01-17T08:45:17.684Z,5.92
2023-01-17T08:47:46.956Z,5.93
2023-01-17T08:50:20.688Z,5.91
2023-01-17T08:52:49.964Z,5.96
2023-01-17T08:55:19.601Z,5.95
2023-01-17T08:57:48.887Z,5.97
2023-01-17T09:00:20.643Z,5.97
2023-01-17T09:02:49.832Z,6.03
2023-01-17T09:05:19.491Z,6.05
2023-01-17T09:07:48.724Z,6.06
2023-01-17T09:10:18.377Z,6.08
2023-01-17T09:12:47.632Z,6.10
2023-01-17T09:15:20.338Z,6.13
2023-01-17T09:17:51.173Z,6.08
2023-01-17T09:20:20.919Z,6.10
2023-01-17T09:22:50.200Z,6.12
2023-01-17T09:25:19.907Z,6.20
2023-01-17T09:27:49.102Z,6.21
2023-01-17T09:30:19.077Z,6.22
2023-01-17T09:32:54.587Z,6.23
2023-01-17T09:35:24.348Z,6.22
2023-01-17T09:37:54.115Z,6.25
2023-01-17T09:40:25.583Z,6.24
2023-01-17T09:42:54.994Z,6.25
2023-01-17T09:45:32.667Z,6.31
2023-01-17T09:48:03.569Z,6.28
2023-01-17T09:50:33.449Z,6.29
2023-01-17T09:53:03.217Z,6.33
2023-01-17T09:55:35.034Z,6.35
2023-01-17T09:58:05.011Z,6.35
2023-01-17T10:00:42.858Z,6.38
2023-01-17T10:03:25.993Z,6.38
2023-01-17T10:06:00.179Z,6.43
2023-01-17T10:08:33.059Z,6.44
2023-01-17T10:11:09.161Z,6.46
2023-01-17T10:13:40.117Z,6.45
2023-01-17T10:16:19.901Z,6.46
2023-01-17T10:19:04.058Z,6.44
2023-01-17T10:21:35.629Z,6.44
2023-01-17T10:24:13.844Z,6.47
2023-01-17T10:26:43.705Z,6.42
2023-01-17T10:29:14.242Z,6.48
2023-01-17T10:31:45.262Z,6.52
2023-01-17T10:34:16.667Z,6.54
2023-01-17T10:36:47.179Z,6.57
2023-01-17T10:39:17.416Z,6.59
2023-01-17T10:41:47.680Z,6.59
2023-01-17T10:44:18.835Z,6.62
2023-01-17T10:46:49.351Z,6.66
2023-01-17T10:49:20.633Z,6.67
2023-01-17T10:52:10.898Z,6.68
2023-01-17T10:54:51.594Z,6.70
2023-01-17T10:57:22.021Z,6.71
2023-01-17T10:59:51.384Z,6.73
2023-01-17T11:02:22.318Z,6.78
2023-01-17T11:04:54.675Z,6.81
2023-01-17T11:07:24.955Z,6.82
2023-01-17T11:09:54.665Z,6.84
2023-01-17T11:12:25.401Z,6.85
2023-01-17T11:14:59.411Z,6.84
2023-01-17T11:17:29.089Z,6.88
2023-01-17T11:20:09.517Z,6.87
2023-01-17T11:22:39.054Z,6.84
2023-01-17T11:25:08.697Z,6.79
2023-01-17T11:27:39.671Z,6.89
2023-01-17T11:30:17.026Z,6.91
2023-01-17T11:32:53.203Z,6.92
2023-01-17T11:35:25.701Z,6.97
2023-01-17T11:37:59.367Z,7.02
2023-01-17T11:40:29.863Z,7.02
2023-01-17T11:43:03.924Z,7.06
2023-01-17T11:45:33.509Z,7.06
2023-01-17T11:48:07.950Z,7.02
2023-01-17T11:50:38.980Z,7.03
2023-01-17T11:53:12.573Z,7.10
2023-01-17T11:55:41.925Z,7.14
2023-01-17T11:58:14.549Z,7.10
2023-01-17T12:00:46.152Z,7.14
2023-01-17T12:03:18.321Z,7.19
2023-01-17T12:05:53.707Z,7.18
2023-01-17T12:08:27.005Z,7.20
2023-01-17T12:10:57.527Z,7.22
2023-01-17T12:13:46.720Z,7.21
2023-01-17T12:16:31.652Z,7.15
2023-01-17T12:19:07.071Z,7.22
2023-01-17T12:21:40.085Z,7.24
2023-01-17T12:24:21.085Z,7.17
2023-01-17T12:26:51.954Z,7.20
2023-01-17T12:29:36.370Z,7.18
2023-01-17T12:32:29.237Z,7.22
2023-01-17T12:35:00.822Z,7.21
2023-01-17T12:37:34.646Z,7.20
2023-01-17T12:40:05.153Z,7.23
2023-01-17T12:42:34.634Z,7.21
2023-01-17T12:45:05.813Z,7.23
2023-01-17T12:47:36.608Z,7.23
2023-01-17T12:50:08.691Z,7.27
2023-01-17T12:52:46.443Z,7.24
2023-01-17T12:55:17.753Z,7.24
2023-01-17T12:57:47.227Z,7.29
2023-01-17T13:00:19.744Z,7.29
2023-01-17T13:02:50.535Z,7.28
2023-01-17T13:05:23.865Z,7.29
2023-01-17T13:07:55.270Z,7.33
2023-01-17T13:10:32.266Z,7.36
2023-01-17T13:13:02.008Z,7.39
2023-01-17T13:15:35.383Z,7.41
2023-01-17T13:18:05.506Z,7.44
2023-01-17T13:20:36.371Z,7.42
2023-01-17T13:23:09.910Z,7.40
2023-01-17T13:25:41.214Z,7.34
2023-01-17T13:28:19.413Z,7.36
2023-01-17T13:31:06.746Z,7.36
2023-01-17T13:33:51.740Z,7.36
2023-01-17T13:36:30.091Z,7.35
2023-01-17T13:39:06.826Z,7.40
2023-01-17T13:41:38.295Z,7.38
2023-01-17T13:44:25.510Z,7.40
2023-01-17T13:46:59.056Z,7.42
2023-01-17T13:49:44.765Z,7.44
2023-01-17T13:52:30.454Z,7.45
2023-01-17T13:55:03.207Z,7.45
2023-01-17T13:57:40.857Z,7.42
2023-01-17T14:00:28.700Z,7.44
2023-01-17T14:02:58.384Z,7.42
2023-01-17T14:05:42.397Z,7.42
2023-01-17T14:08:14.562Z,7.41
2023-01-17T14:10:46.425Z,7.41
2023-01-17T14:13:31.401Z,7.41
2023-01-17T14:16:00.772Z,7.38
2023-01-17T14:18:34.437Z,7.37
2023-01-17T14:21:07.757Z,7.38
2023-01-17T14:24:07.255Z,7.36
2023-01-17T14:26:51.771Z,7.34
2023-01-17T14:29:39.610Z,7.35
2023-01-17T14:32:12.262Z,7.33
2023-01-17T14:34:42.168Z,7.34
2023-01-17T14:37:22.048Z,7.35
2023-01-17T14:39:52.023Z,7.35
2023-01-17T14:42:21.926Z,7.34
2023-01-17T14:44:52.655Z,7.29
2023-01-17T14:47:24.187Z,7.27
2023-01-17T14:50:08.703Z,7.27
2023-01-17T14:52:38.087Z,7.24
2023-01-17T14:55:14.872Z,7.23
2023-01-17T14:57:44.228Z,7.22
2023-01-17T15:00:15.225Z,7.23
2023-01-17T15:02:46.315Z,7.23
2023-01-17T15:05:16.607Z,7.23
2023-01-17T15:07:46.801Z,7.21
2023-01-17T15:10:17.182Z,7.16
2023-01-17T15:12:47.908Z,7.15
2023-01-17T15:15:30.838Z,7.03
2023-01-17T15:18:11.141Z,6.91
2023-01-17T15:20:40.972Z,6.88
2023-01-17T15:23:10.554Z,6.97
2023-01-17T15:25:40.292Z,7.01
2023-01-17T15:28:10.098Z,7.00
2023-01-17T15:30:39.817Z,6.88
2023-01-17T15:33:14.825Z,6.88
2023-01-17T15:35:44.891Z,6.90
2023-01-17T15:38:14.564Z,6.84
2023-01-17T15:40:46.153Z,6.88
2023-01-17T15:43:17.377Z,6.92
2023-01-17T15:45:55.579Z,6.86
2023-01-17T15:48:37.654Z,6.87
2023-01-17T15:51:07.519Z,6.80
2023-01-17T15:53:37.847Z,6.86
2023-01-17T15:56:23.899Z,6.87
2023-01-17T15:58:53.272Z,6.87
2023-01-17T16:01:25.823Z,6.86
2023-01-17T16:03:58.859Z,6.86
2023-01-17T16:06:38.439Z,6.86
2023-01-17T16:09:18.618Z,6.85
2023-01-17T16:11:48.584Z,6.85
2023-01-17T16:14:18.072Z,6.85
2023-01-17T16:16:51.627Z,6.84
2023-01-17T16:19:23.255Z,6.83
2023-01-17T16:21:53.134Z,6.81
2023-01-17T16:24:22.482Z,6.80
2023-01-17T16:26:52.159Z,6.79
2023-01-17T16:29:37.476Z,6.79
2023-01-17T16:32:28.698Z,6.78
2023-01-17T16:35:46.076Z,6.78
2023-01-17T16:38:17.135Z,6.77
2023-01-17T16:40:46.805Z,6.73
2023-01-17T16:43:17.358Z,6.75
2023-01-17T16:45:47.255Z,6.74
2023-01-17T16:48:19.421Z,6.71
2023-01-17T16:50:52.245Z,6.68
2023-01-17T16:53:24.750Z,6.68
2023-01-17T16:55:54.873Z,6.64
2023-01-17T16:58:24.529Z,6.62
2023-01-17T17:00:55.802Z,6.62
2023-01-17T17:03:25.559Z,6.61
2023-01-17T17:05:59.596Z,6.56
2023-01-17T17:08:30.200Z,6.56
2023-01-17T17:11:07.790Z,6.53
2023-01-17T17:13:37.475Z,6.48
2023-01-17T17:16:10.850Z,6.44
2023-01-17T17:18:40.588Z,6.48
2023-01-17T17:21:11.335Z,6.48
2023-01-17T17:23:41.161Z,6.46
2023-01-17T17:26:10.431Z,6.43
2023-01-17T17:28:42.311Z,6.38
2023-01-17T17:31:11.838Z,6.31
2023-01-17T17:33:41.717Z,6.13
2023-01-17T17:36:12.656Z,6.17
2023-01-17T17:38:51.098Z,6.30
2023-01-17T17:41:21.397Z,6.33
2023-01-17T17:43:51.479Z,6.18
2023-01-17T17:46:21.042Z,6.10
2023-01-17T17:48:50.766Z,6.05
2023-01-17T17:51:23.765Z,5.96
2023-01-17T17:53:54.771Z,5.94
2023-01-17T17:56:24.208Z,5.74
2023-01-17T17:58:54.098Z,5.60
2023-01-17T18:01:24.384Z,5.84
2023-01-17T18:03:54.449Z,5.79
2023-01-17T18:06:25.502Z,5.76
2023-01-17T18:08:55.270Z,5.68
2023-01-17T18:11:26.157Z,5.46
2023-01-17T18:13:56.617Z,5.66
2023-01-17T18:16:26.605Z,5.77
2023-01-17T18:18:56.818Z,5.84
2023-01-17T18:21:28.192Z,5.93
2023-01-17T18:23:58.948Z,5.91
2023-01-17T18:26:29.086Z,5.89
2023-01-17T18:28:59.385Z,5.94
2023-01-17T18:31:29.217Z,5.95
2023-01-17T18:33:59.545Z,5.95
2023-01-17T18:36:30.379Z,5.97
2023-01-17T18:39:00.472Z,5.97
2023-01-17T18:41:30.846Z,5.95
2023-01-17T18:44:00.659Z,5.96
2023-01-17T18:46:31.731Z,5.95
2023-01-17T18:49:01.624Z,5.92
2023-01-17T18:51:33.534Z,5.92
2023-01-17T18:54:06.953Z,5.87
2023-01-17T18:56:36.901Z,5.85
2023-01-17T18:59:07.215Z,5.80
2023-01-17T19:01:42.342Z,5.78
2023-01-17T19:04:12.723Z,5.78
2023-01-17T19:06:44.580Z,5.77
2023-01-17T19:09:15.152Z,5.73
2023-01-17T19:11:45.180Z,5.71
2023-01-17T19:14:15.932Z,5.69
2023-01-17T19:16:45.317Z,5.67
2023-01-17T19:19:15.680Z,5.62
2023-01-17T19:21:46.461Z,5.62
2023-01-17T19:24:16.793Z,5.61
2023-01-17T19:26:47.851Z,5.59
2023-01-17T19:29:17.666Z,5.56
2023-01-17T19:31:47.017Z,5.53
2023-01-17T19:34:20.064Z,5.53
2023-01-17T19:36:52.618Z,5.50
2023-01-17T19:39:25.585Z,5.49
2023-01-17T19:41:54.919Z,5.47
2023-01-17T19:44:24.689Z,5.44
2023-01-17T19:46:53.995Z,5.44
2023-01-17T19:49:24.823Z,5.33
2023-01-17T19:51:55.633Z,5.32
2023-01-17T19:54:25.471Z,5.33
2023-01-17T19:56:54.754Z,5.27
2023-01-17T19:59:24.360Z,5.30
2023-01-17T20:01:53.730Z,5.25
2023-01-17T20:04:23.989Z,5.25
2023-01-17T20:06:54.415Z,5.22
2023-01-17T20:09:25.633Z,5.22
2023-01-17T20:11:54.890Z,5.04
2023-01-17T20:14:24.552Z,5.05
2023-01-17T20:16:53.919Z,5.13
2023-01-17T20:19:23.556Z,5.13
2023-01-17T20:21:53.254Z,5.14
2023-01-17T20:24:22.956Z,5.11
2023-01-17T20:26:53.770Z,5.05
2023-01-17T20:29:23.384Z,5.04
2023-01-17T20:31:53.723Z,4.99
2023-01-17T20:34:25.886Z,5.04
2023-01-17T20:36:57.583Z,4.93
2023-01-17T20:39:27.379Z,5.00
2023-01-17T20:41:58.255Z,5.03
2023-01-17T20:44:27.916Z,5.01
2023-01-17T20:46:57.259Z,4.93
2023-01-17T20:49:27.094Z,4.98
2023-01-17T20:51:56.601Z,4.97
2023-01-17T20:54:26.385Z,4.98
2023-01-17T20:56:56.017Z,4.96
2023-01-17T20:59:27.661Z,4.97
2023-01-17T21:01:57.124Z,4.90
2023-01-17T21:07:43.806Z,4.83
2023-01-17T21:10:13.629Z,4.79
2023-01-17T21:12:43.135Z,4.84
2023-01-17T21:15:17.464Z,4.84
2023-01-17T21:17:48.019Z,4.83
2023-01-17T21:20:23.853Z,4.81
2023-01-17T21:22:54.688Z,4.81
2023-01-17T21:25:24.234Z,4.79
2023-01-17T21:27:53.620Z,4.72
2023-01-17T21:30:24.701Z,4.69
2023-01-17T21:32:53.961Z,4.64
2023-01-17T21:35:23.499Z,4.61
2023-01-17T21:37:53.095Z,4.19
2023-01-17T21:40:22.651Z,4.34
2023-01-17T21:42:52.870Z,4.39
2023-01-17T21:45:26.373Z,4.42
2023-01-17T21:47:57.415Z,4.42
2023-01-17T21:50:33.381Z,4.37
2023-01-17T21:53:03.154Z,4.36
2023-01-17T21:55:49.779Z,4.37
2023-01-17T21:58:36.690Z,4.26
2023-01-17T22:01:15.983Z,4.33
2023-01-17T22:03:48.928Z,4.33
2023-01-17T22:06:18.530Z,4.34
2023-01-17T22:08:47.796Z,4.35
2023-01-17T22:11:17.841Z,4.37
2023-01-17T22:13:47.391Z,4.26
2023-01-17T22:16:18.320Z,4.29
2023-01-17T22:18:49.609Z,4.32
2023-01-17T22:21:20.476Z,4.34
2023-01-17T22:23:50.733Z,4.26
2023-01-17T22:26:29.671Z,4.27
2023-01-17T22:29:00.848Z,4.28
2023-01-17T22:31:30.426Z,4.32
2023-01-17T22:34:08.476Z,4.32
2023-01-17T22:36:39.154Z,4.30
2023-01-17T22:39:08.494Z,4.32
2023-01-17T22:41:41.087Z,4.31
2023-01-17T22:44:11.435Z,4.29
2023-01-17T22:46:41.559Z,4.27
2023-01-17T22:49:13.540Z,4.28
2023-01-17T22:51:43.127Z,4.24
2023-01-17T22:54:12.572Z,4.22
2023-01-17T22:56:42.155Z,4.21
2023-01-17T22:59:12.594Z,4.19
2023-01-17T23:01:42.185Z,4.16
2023-01-17T23:04:13.601Z,4.12
2023-01-17T23:06:43.095Z,4.08
2023-01-17T23:09:12.931Z,4.07
2023-01-17T23:11:46.777Z,4.02
2023-01-17T23:14:17.609Z,4.02
2023-01-17T23:17:04.644Z,4.00
2023-01-17T23:19:35.919Z,3.94
2023-01-17T23:22:17.600Z,3.89
2023-01-17T23:24:47.733Z,3.86
2023-01-17T23:27:34.880Z,3.82
2023-01-17T23:30:05.183Z,3.79
2023-01-17T23:32:34.555Z,3.78
2023-01-17T23:35:05.359Z,3.75
2023-01-17T23:37:52.098Z,3.72
2023-01-17T23:40:21.243Z,3.68
2023-01-17T23:43:07.831Z,3.69
2023-01-17T23:45:37.027Z,3.67
2023-01-17T23:48:09.647Z,3.67
2023-01-17T23:50:41.365Z,3.67
2023-01-17T23:53:10.854Z,3.65
2023-01-17T23:55:40.269Z,3.60
2023-01-17T23:58:10.457Z,3.58
